Time;durP1;ratioP1;P1;durP2;ratioP2;P2;SDS_P1;SDS_P2;PMS_P1;PMS_P2;Temp;Humidity;BMP_temperature;BMP_pressure;BME280_temperature;BME280_humidity;BME280_pressure;Samples;Min_cycle;Max_cycle;Signal;HPM_P1;HPM_P2
2022/03/09 00:02:25;;;;;;;46.92;21.55;;;7.60;99.90;;;;;;4881049;29;20173;-89
2022/03/09 00:04:54;;;;;;;53.70;23.73;;;7.60;99.90;;;;;;4871420;29;20037;-90
2022/03/09 00:07:20;;;;;;;52.38;25.55;;;7.60;99.90;;;;;;4863110;29;20048;-89
2022/03/09 00:09:45;;;;;;;47.97;23.08;;;7.60;99.90;;;;;;4877327;29;20018;-91
2022/03/09 00:12:11;;;;;;;45.40;22.60;;;7.60;99.90;;;;;;4872378;29;20092;-90
2022/03/09 00:14:37;;;;;;;45.65;21.02;;;7.60;99.90;;;;;;4883441;29;20088;-90
2022/03/09 00:17:03;;;;;;;49.25;24.13;;;7.60;99.90;;;;;;4878271;29;20423;-91
2022/03/09 00:19:29;;;;;;;59.72;26.05;;;7.60;99.90;;;;;;4885463;29;20476;-88
2022/03/09 00:21:54;;;;;;;46.10;22.88;;;7.60;99.90;;;;;;4872060;29;20048;-89
2022/03/09 00:24:20;;;;;;;48.45;22.00;;;7.60;99.90;;;;;;4875284;29;20051;-89
2022/03/09 00:26:46;;;;;;;53.60;25.90;;;7.60;99.90;;;;;;4867105;29;20056;-90
2022/03/09 00:29:12;;;;;;;56.13;25.67;;;7.60;99.90;;;;;;4860007;29;20033;-88
2022/03/09 00:31:38;;;;;;;48.55;22.40;;;7.50;99.90;;;;;;4865256;29;20040;-88
2022/03/09 00:34:04;;;;;;;48.92;23.42;;;7.60;99.90;;;;;;4859950;29;20056;-90
2022/03/09 00:36:29;;;;;;;51.90;24.65;;;7.50;99.90;;;;;;4859946;29;20045;-90
2022/03/09 00:38:56;;;;;;;52.22;25.75;;;7.60;99.90;;;;;;4860241;29;20132;-90
2022/03/09 00:41:22;;;;;;;53.13;26.13;;;7.50;99.90;;;;;;4861448;29;20037;-90
2022/03/09 00:43:48;;;;;;;54.17;25.92;;;7.50;99.90;;;;;;4859968;29;20026;-89
2022/03/09 00:46:13;;;;;;;55.85;25.55;;;7.50;99.90;;;;;;4859800;29;20060;-90
2022/03/09 00:48:39;;;;;;;54.25;24.40;;;7.50;99.90;;;;;;4860126;29;20034;-90
2022/03/09 00:51:06;;;;;;;51.13;23.27;;;7.50;99.90;;;;;;4860266;29;20404;-88
2022/03/09 00:53:32;;;;;;;51.78;23.27;;;7.60;99.90;;;;;;4860166;29;20468;-88
2022/03/09 00:55:57;;;;;;;53.70;24.88;;;7.60;99.90;;;;;;4859816;29;20045;-90
2022/03/09 00:58:23;;;;;;;55.83;25.80;;;7.60;99.90;;;;;;4860147;29;20029;-89
2022/03/09 01:00:49;;;;;;;50.20;23.55;;;7.60;99.90;;;;;;4859966;29;20124;-89
2022/03/09 01:03:15;;;;;;;57.85;25.13;;;7.60;99.90;;;;;;4859703;29;20033;-90
2022/03/09 01:05:41;;;;;;;54.78;26.20;;;7.60;99.90;;;;;;4859786;29;20032;-89
2022/03/09 01:08:08;;;;;;;50.70;24.48;;;7.60;99.90;;;;;;4859753;29;20067;-89
2022/03/09 01:10:34;;;;;;;57.50;26.02;;;7.60;99.90;;;;;;4860099;29;20053;-89
2022/03/09 01:13:00;;;;;;;53.70;25.52;;;7.60;99.90;;;;;;4859809;29;20037;-91
2022/03/09 01:15:25;;;;;;;50.70;23.70;;;7.60;99.90;;;;;;4859458;29;20514;-89
2022/03/09 01:17:52;;;;;;;54.78;23.27;;;7.50;99.90;;;;;;4859275;29;20045;-89
2022/03/09 01:20:18;;;;;;;51.25;24.27;;;7.50;99.90;;;;;;4859646;29;20037;-88
2022/03/09 01:22:44;;;;;;;56.60;25.35;;;7.50;99.90;;;;;;4860479;29;20484;-88
2022/03/09 01:25:10;;;;;;;55.33;25.88;;;7.40;99.90;;;;;;4860559;29;20097;-90
2022/03/09 01:27:36;;;;;;;57.80;27.17;;;7.40;99.90;;;;;;4862137;29;20030;-88
2022/03/09 01:30:03;;;;;;;58.15;25.33;;;7.40;99.90;;;;;;4865604;29;20026;-90
2022/03/09 01:32:29;;;;;;;55.80;24.98;;;7.40;99.90;;;;;;4868939;29;20049;-89
2022/03/09 01:34:55;;;;;;;55.95;23.80;;;7.30;99.90;;;;;;4879914;29;20052;-89
2022/03/09 01:37:21;;;;;;;52.97;25.67;;;7.30;99.90;;;;;;4885037;29;20022;-90
2022/03/09 01:39:47;;;;;;;54.00;25.20;;;7.40;99.90;;;;;;4882614;29;20043;-91
2022/03/09 01:42:13;;;;;;;53.35;25.67;;;7.40;99.90;;;;;;4873331;29;20058;-89
2022/03/09 01:44:38;;;;;;;55.97;24.75;;;7.40;99.90;;;;;;4865121;29;20448;-90
2022/03/09 01:47:04;;;;;;;54.75;27.23;;;7.40;99.90;;;;;;4864687;29;20045;-90
2022/03/09 01:49:30;;;;;;;57.60;27.30;;;7.40;99.90;;;;;;4866199;29;20120;-89
2022/03/09 01:52:00;;;;;;;49.67;21.13;;;7.40;99.90;;;;;;4865548;29;20629;-89
2022/03/09 01:54:28;;;;;;;57.58;26.30;;;7.30;99.90;;;;;;4864442;29;20030;-91
2022/03/09 01:56:54;;;;;;;57.67;27.52;;;7.30;99.90;;;;;;4863936;29;20041;-89
2022/03/09 01:59:20;;;;;;;55.92;26.85;;;7.20;99.90;;;;;;4867137;29;20036;-89
2022/03/09 02:01:46;;;;;;;52.45;21.52;;;7.20;99.90;;;;;;4867057;29;20484;-89
2022/03/09 02:04:12;;;;;;;58.53;26.75;;;7.20;99.90;;;;;;4869123;29;20179;-89
2022/03/09 02:06:39;;;;;;;64.47;27.42;;;7.20;99.90;;;;;;4874587;29;20021;-89
2022/03/09 02:11:53;;;;;;;57.42;24.13;;;7.10;99.90;;;;;;4880233;29;20049;-89
2022/03/09 02:14:36;;;;;;;53.65;24.23;;;7.10;99.90;;;;;;4879066;29;20026;-89
2022/03/09 02:17:12;;;;;;;59.20;25.52;;;7.10;99.90;;;;;;4871136;29;20037;-89
2022/03/09 02:19:39;;;;;;;69.00;28.45;;;7.10;99.90;;;;;;4870928;29;20026;-89
2022/03/09 02:22:35;;;;;;;61.88;27.70;;;7.10;99.90;;;;;;4867381;29;20072;-88
2022/03/09 02:25:02;;;;;;;58.03;25.15;;;7.10;99.90;;;;;;4864076;29;20170;-90
2022/03/09 02:27:30;;;;;;;59.30;27.00;;;7.10;99.90;;;;;;4863448;29;20041;-88
2022/03/09 02:29:56;;;;;;;64.45;27.80;;;7.10;99.90;;;;;;4863235;29;20127;-90
2022/03/09 02:32:22;;;;;;;65.68;28.38;;;7.00;99.90;;;;;;4862797;29;20128;-89
2022/03/09 02:34:48;;;;;;;63.83;28.25;;;7.10;99.90;;;;;;4862593;29;20026;-89
2022/03/09 02:37:15;;;;;;;60.63;28.45;;;7.10;99.90;;;;;;4862222;29;20045;-89
2022/03/09 02:39:41;;;;;;;51.05;24.30;;;7.10;99.90;;;;;;4862524;29;20022;-89
2022/03/09 02:42:07;;;;;;;68.63;26.10;;;7.10;99.90;;;;;;4862220;29;20515;-90
2022/03/09 02:44:33;;;;;;;54.08;26.95;;;7.10;99.90;;;;;;4862491;29;20032;-89
2022/03/09 02:46:59;;;;;;;56.65;26.90;;;7.10;99.90;;;;;;4862154;29;20058;-90
2022/03/09 02:49:25;;;;;;;60.47;25.83;;;7.10;99.90;;;;;;4862081;29;20124;-88
2022/03/09 02:51:50;;;;;;;61.67;26.77;;;7.10;99.90;;;;;;4861529;29;20121;-89
2022/03/09 02:54:16;;;;;;;51.70;23.05;;;7.00;99.90;;;;;;4861793;29;20082;-90
2022/03/09 02:56:42;;;;;;;56.58;24.70;;;7.10;99.90;;;;;;4861430;29;20063;-89
2022/03/09 02:59:08;;;;;;;56.22;25.33;;;7.00;99.90;;;;;;4861613;29;20026;-90
2022/03/09 03:01:35;;;;;;;60.47;27.30;;;7.10;99.90;;;;;;4861381;29;20033;-89
2022/03/09 03:04:01;;;;;;;52.55;25.88;;;7.10;99.90;;;;;;4861689;29;20491;-89
2022/03/09 03:06:26;;;;;;;62.33;26.83;;;7.10;99.90;;;;;;4862974;29;20038;-89
2022/03/09 03:08:52;;;;;;;58.67;25.38;;;7.10;99.90;;;;;;4861365;29;20040;-91
2022/03/09 03:11:18;;;;;;;62.80;26.45;;;7.10;99.90;;;;;;4862473;29;20060;-89
2022/03/09 03:13:45;;;;;;;53.38;24.17;;;7.10;99.90;;;;;;4861297;29;20053;-89
2022/03/09 03:16:11;;;;;;;58.60;27.15;;;7.10;99.90;;;;;;4861086;29;20080;-89
2022/03/09 03:18:37;;;;;;;56.60;25.65;;;7.10;99.90;;;;;;4865253;29;20060;-90
2022/03/09 03:21:03;;;;;;;48.63;21.45;;;7.10;99.90;;;;;;4870692;29;20040;-89
2022/03/09 03:23:32;;;;;;;56.67;23.85;;;7.10;99.90;;;;;;4861798;29;20057;-90
2022/03/09 03:25:59;;;;;;;55.42;24.67;;;7.10;99.90;;;;;;4862007;29;20025;-89
2022/03/09 03:28:25;;;;;;;56.22;22.40;;;7.10;99.90;;;;;;4861483;29;20128;-89
2022/03/09 03:30:51;;;;;;;53.60;22.92;;;7.20;99.90;;;;;;4861681;29;20084;-89
2022/03/09 03:33:18;;;;;;;46.33;21.50;;;7.20;99.90;;;;;;4861105;29;20101;-89
2022/03/09 03:35:45;;;;;;;52.05;23.55;;;7.20;99.90;;;;;;4861589;29;20042;-89
2022/03/09 03:38:10;;;;;;;42.38;19.90;;;7.20;99.90;;;;;;4861751;29;20030;-89
2022/03/09 03:40:37;;;;;;;52.50;19.33;;;7.20;99.90;;;;;;4861510;29;20029;-89
2022/03/09 03:43:03;;;;;;;47.60;17.13;;;7.20;99.90;;;;;;4861351;29;20033;-89
2022/03/09 03:45:29;;;;;;;43.88;20.40;;;7.20;99.90;;;;;;4860948;29;20033;-89
2022/03/09 03:47:55;;;;;;;51.92;19.00;;;7.20;99.90;;;;;;4861436;29;20045;-90
2022/03/09 03:50:21;;;;;;;54.35;19.75;;;7.20;99.90;;;;;;4861141;29;20040;-90
2022/03/09 03:52:46;;;;;;;48.75;19.65;;;7.30;99.90;;;;;;4861214;29;20033;-90
2022/03/09 03:55:12;;;;;;;42.53;16.05;;;7.30;99.90;;;;;;4861209;29;20026;-89
2022/03/09 03:57:39;;;;;;;36.30;15.82;;;7.30;99.90;;;;;;4860800;29;20029;-87
2022/03/09 04:00:06;;;;;;;33.25;15.65;;;7.30;99.90;;;;;;4860977;29;20065;-90
2022/03/09 04:02:32;;;;;;;40.53;16.00;;;7.30;99.90;;;;;;4860909;29;20056;-89
2022/03/09 04:04:57;;;;;;;32.72;12.85;;;7.30;99.90;;;;;;4861179;29;20029;-90
2022/03/09 04:07:23;;;;;;;34.88;13.30;;;7.30;99.90;;;;;;4861145;29;20396;-90
2022/03/09 04:09:49;;;;;;;39.47;13.73;;;7.30;99.90;;;;;;4860801;29;20037;-90
2022/03/09 04:12:14;;;;;;;31.42;10.25;;;7.30;99.90;;;;;;4860893;29;20068;-91
2022/03/09 04:14:40;;;;;;;42.40;13.65;;;7.30;99.90;;;;;;4860763;29;20041;-91
2022/03/09 04:17:06;;;;;;;33.35;12.57;;;7.40;99.90;;;;;;4860857;29;20038;-89
2022/03/09 04:19:32;;;;;;;29.85;11.07;;;7.40;99.90;;;;;;4860705;29;20037;-88
2022/03/09 04:21:57;;;;;;;36.22;13.25;;;7.40;99.90;;;;;;4860524;29;20037;-89
2022/03/09 04:24:23;;;;;;;36.72;13.65;;;7.40;99.90;;;;;;4860182;29;20053;-88
2022/03/09 04:26:49;;;;;;;36.47;12.45;;;7.40;99.90;;;;;;4860376;29;20069;-88
2022/03/09 04:29:15;;;;;;;27.77;10.35;;;7.40;99.90;;;;;;4860507;29;20029;-89
2022/03/09 04:31:40;;;;;;;29.73;11.60;;;7.30;99.90;;;;;;4861171;29;20038;-90
2022/03/09 04:34:06;;;;;;;33.00;12.57;;;7.30;99.90;;;;;;4860614;29;20034;-89
2022/03/09 04:36:32;;;;;;;28.75;10.63;;;7.40;99.90;;;;;;4860697;29;20041;-91
2022/03/09 04:38:58;;;;;;;32.42;11.85;;;7.40;99.90;;;;;;4860406;29;20077;-89
2022/03/09 04:41:24;;;;;;;32.78;9.75;;;7.40;99.90;;;;;;4860622;29;20480;-89
2022/03/09 04:43:49;;;;;;;35.80;9.73;;;7.40;99.90;;;;;;4876114;29;20037;-89
2022/03/09 04:46:16;;;;;;;31.70;11.02;;;7.40;99.90;;;;;;4876360;29;20053;-91
2022/03/09 04:48:43;;;;;;;36.25;9.75;;;7.40;99.90;;;;;;4860899;29;20026;-90
2022/03/09 04:51:09;;;;;;;31.60;10.10;;;7.40;99.90;;;;;;4875788;29;20033;-90
2022/03/09 04:53:35;;;;;;;32.13;11.75;;;7.40;99.90;;;;;;4859917;29;20025;-89
2022/03/09 04:56:01;;;;;;;18.60;7.57;;;7.40;99.90;;;;;;4859847;29;20052;-90
2022/03/09 04:58:27;;;;;;;33.17;12.90;;;7.30;99.90;;;;;;4874944;29;20078;-90
2022/03/09 05:00:53;;;;;;;33.50;10.93;;;7.40;99.90;;;;;;4860873;29;20053;-91
2022/03/09 05:03:19;;;;;;;33.38;11.73;;;7.40;99.90;;;;;;4859582;29;20036;-89
2022/03/09 05:05:45;;;;;;;33.70;11.32;;;7.40;99.90;;;;;;4859474;29;20026;-87
2022/03/09 05:08:11;;;;;;;26.98;10.05;;;7.40;99.90;;;;;;4859621;29;20049;-90
2022/03/09 05:10:37;;;;;;;36.63;11.23;;;7.40;99.90;;;;;;4859456;29;20495;-89
2022/03/09 05:13:05;;;;;;;33.67;9.25;;;7.40;99.90;;;;;;4859483;29;20042;-90
2022/03/09 05:15:32;;;;;;;29.42;10.90;;;7.40;99.90;;;;;;4875669;29;20034;-88
2022/03/09 05:17:58;;;;;;;20.08;7.50;;;7.40;99.90;;;;;;4866063;29;20061;-89
2022/03/09 05:20:24;;;;;;;24.80;8.23;;;7.40;99.90;;;;;;4885439;29;20061;-89
2022/03/09 05:22:51;;;;;;;27.90;10.43;;;7.30;99.90;;;;;;4884232;29;20030;-88
2022/03/09 05:25:17;;;;;;;30.30;10.48;;;7.40;99.90;;;;;;4868304;29;20111;-89
2022/03/09 05:27:43;;;;;;;36.28;11.63;;;7.40;99.90;;;;;;4870135;29;20029;-89
2022/03/09 05:30:09;;;;;;;24.05;9.98;;;7.40;99.90;;;;;;4867911;29;20038;-90
2022/03/09 05:32:36;;;;;;;37.88;13.18;;;7.40;99.90;;;;;;4882972;29;20036;-90
2022/03/09 05:35:03;;;;;;;33.00;13.02;;;7.30;99.90;;;;;;4864191;29;20032;-90
2022/03/09 05:37:39;;;;;;;26.30;10.55;;;7.30;99.90;;;;;;4860992;29;20066;-89
2022/03/09 05:40:06;;;;;;;24.85;11.23;;;7.30;99.90;;;;;;4860037;29;20036;-90
2022/03/09 05:42:33;;;;;;;37.92;11.60;;;7.30;99.90;;;;;;4859461;29;20060;-89
2022/03/09 05:44:59;;;;;;;28.80;13.07;;;7.20;99.90;;;;;;4859133;29;20026;-89
2022/03/09 05:47:24;;;;;;;32.53;11.85;;;7.20;99.90;;;;;;4860687;29;20045;-89
2022/03/09 05:49:50;;;;;;;30.45;13.40;;;7.30;99.90;;;;;;4859283;29;20033;-90
2022/03/09 05:52:16;;;;;;;30.80;10.30;;;7.20;99.90;;;;;;4859209;29;20080;-90
2022/03/09 05:54:42;;;;;;;31.77;11.80;;;7.20;99.90;;;;;;4859143;29;20026;-90
2022/03/09 05:57:08;;;;;;;33.70;11.50;;;7.30;99.90;;;;;;4859238;29;20186;-90
2022/03/09 05:59:33;;;;;;;31.55;11.43;;;7.20;99.90;;;;;;4859197;29;20120;-90
2022/03/09 06:01:59;;;;;;;30.88;10.68;;;7.20;99.90;;;;;;4859091;29;20042;-89
2022/03/09 06:04:25;;;;;;;27.05;10.10;;;7.20;99.90;;;;;;4859058;29;20036;-90
2022/03/09 06:06:51;;;;;;;22.15;9.45;;;7.20;99.90;;;;;;4859624;29;20033;-89
2022/03/09 06:09:17;;;;;;;26.98;8.98;;;7.20;99.90;;;;;;4875005;29;20066;-89
2022/03/09 06:11:43;;;;;;;26.05;9.35;;;7.20;99.90;;;;;;4860066;29;20476;-89
2022/03/09 06:14:08;;;;;;;24.85;9.90;;;7.30;99.90;;;;;;4874367;29;20078;-88
2022/03/09 06:16:34;;;;;;;28.70;8.70;;;7.30;99.90;;;;;;4875609;29;20045;-90
2022/03/09 06:19:00;;;;;;;28.20;10.02;;;7.30;99.90;;;;;;4878167;29;20078;-88
2022/03/09 06:21:26;;;;;;;22.90;8.80;;;7.30;99.90;;;;;;4866345;29;20459;-89
2022/03/09 06:23:51;;;;;;;27.38;9.32;;;7.30;99.90;;;;;;4879685;29;20026;-88
2022/03/09 06:26:17;;;;;;;23.20;8.75;;;7.30;99.90;;;;;;4878106;29;20064;-89
2022/03/09 06:28:43;;;;;;;20.67;8.88;;;7.30;99.90;;;;;;4878083;29;20100;-89
2022/03/09 06:31:08;;;;;;;30.02;8.32;;;7.20;99.90;;;;;;4877593;29;20065;-88
2022/03/09 06:33:34;;;;;;;13.32;6.95;;;7.20;99.90;;;;;;4884610;29;20124;-88
2022/03/09 06:36:00;;;;;;;30.05;9.25;;;7.20;99.90;;;;;;4891983;29;20040;-88
2022/03/09 06:38:26;;;;;;;28.73;9.15;;;7.20;99.90;;;;;;4887712;29;20506;-89
2022/03/09 06:40:51;;;;;;;25.23;9.40;;;7.20;99.90;;;;;;4887154;29;20033;-88
2022/03/09 06:43:17;;;;;;;21.10;7.78;;;7.20;99.90;;;;;;4887347;29;20397;-88
2022/03/09 06:45:43;;;;;;;24.95;8.95;;;7.10;99.90;;;;;;4869409;29;20041;-89
2022/03/09 06:48:09;;;;;;;21.73;7.85;;;7.10;99.90;;;;;;4884606;29;20395;-89
2022/03/09 06:50:34;;;;;;;28.63;9.07;;;7.10;99.90;;;;;;4886947;29;20039;-89
2022/03/09 06:53:01;;;;;;;28.27;9.82;;;7.10;99.90;;;;;;4885833;29;20220;-89
2022/03/09 06:55:27;;;;;;;25.88;8.90;;;7.10;99.90;;;;;;4885121;29;20523;-89
2022/03/09 06:57:53;;;;;;;20.92;7.65;;;7.10;99.90;;;;;;4884729;29;20033;-90
2022/03/09 07:00:19;;;;;;;17.95;9.02;;;7.10;99.90;;;;;;4887186;29;20106;-90
2022/03/09 07:02:46;;;;;;;18.52;7.13;;;7.10;99.90;;;;;;4883790;29;20045;-87
2022/03/09 07:05:12;;;;;;;16.13;7.45;;;7.10;99.90;;;;;;4873347;29;20029;-90
2022/03/09 07:07:39;;;;;;;14.73;6.65;;;7.10;99.90;;;;;;4869953;29;20037;-89
2022/03/09 07:10:10;;;;;;;18.88;6.97;;;7.10;99.90;;;;;;4872440;29;20054;-90
2022/03/09 07:12:36;;;;;;;19.33;7.75;;;7.10;99.90;;;;;;4869592;29;20124;-89
2022/03/09 07:15:02;;;;;;;22.77;6.85;;;7.10;99.90;;;;;;4869547;29;20491;-90
2022/03/09 07:17:27;;;;;;;24.70;7.47;;;7.10;99.90;;;;;;4871928;29;20041;-90
2022/03/09 07:19:53;;;;;;;26.98;7.65;;;7.10;99.90;;;;;;4889402;29;20388;-89
2022/03/09 07:22:19;;;;;;;23.38;7.30;;;7.10;99.90;;;;;;4897115;29;20029;-88
2022/03/09 07:24:44;;;;;;;27.08;7.55;;;7.10;99.90;;;;;;4867343;29;20025;-89
2022/03/09 07:27:10;;;;;;;22.63;6.07;;;7.20;99.90;;;;;;4872202;29;20116;-89
2022/03/09 07:29:36;;;;;;;27.50;7.68;;;7.20;99.90;;;;;;4894425;29;20033;-88
2022/03/09 07:32:02;;;;;;;17.67;6.28;;;7.20;99.90;;;;;;4871633;29;20132;-89
2022/03/09 07:34:28;;;;;;;20.05;6.63;;;7.20;99.90;;;;;;4886884;29;20036;-89
2022/03/09 07:36:58;;;;;;;25.08;7.68;;;7.20;99.90;;;;;;4886444;29;20041;-89
2022/03/09 07:39:26;;;;;;;11.30;4.75;;;7.20;99.90;;;;;;4903835;29;20041;-87
2022/03/09 07:41:53;;;;;;;15.27;5.78;;;7.20;99.90;;;;;;4893024;29;20057;-89
2022/03/09 07:44:21;;;;;;;18.08;6.68;;;7.20;99.90;;;;;;4890010;29;20025;-90
2022/03/09 07:46:47;;;;;;;18.30;6.03;;;7.20;99.90;;;;;;4876941;29;20077;-88
2022/03/09 07:49:13;;;;;;;22.50;6.25;;;7.20;99.90;;;;;;4865831;29;20036;-89
2022/03/09 07:51:39;;;;;;;17.52;6.03;;;7.30;99.90;;;;;;4863442;29;20092;-88
2022/03/09 07:54:06;;;;;;;15.68;5.28;;;7.30;99.90;;;;;;4863309;29;20037;-87
2022/03/09 07:56:32;;;;;;;21.52;6.15;;;7.30;99.90;;;;;;4895635;29;20037;-90
2022/03/09 07:58:58;;;;;;;17.33;5.90;;;7.40;99.90;;;;;;4860702;29;20030;-89
2022/03/09 08:01:23;;;;;;;24.80;6.43;;;7.40;99.90;;;;;;4878185;29;20033;-88
2022/03/09 08:03:49;;;;;;;17.13;5.65;;;7.40;99.90;;;;;;4877483;29;20040;-89
2022/03/09 08:06:15;;;;;;;20.73;5.22;;;7.40;99.90;;;;;;4877018;29;20038;-89
2022/03/09 08:08:40;;;;;;;24.13;6.20;;;7.50;99.90;;;;;;4877020;29;20057;-89
2022/03/09 08:11:06;;;;;;;18.83;5.72;;;7.50;99.90;;;;;;4885030;29;20384;-89
2022/03/09 08:13:32;;;;;;;11.00;4.35;;;7.50;99.90;;;;;;4896605;29;20373;-90
2022/03/09 08:15:57;;;;;;;21.02;5.57;;;7.60;99.90;;;;;;4894191;29;20131;-91
2022/03/09 08:18:23;;;;;;;16.52;5.68;;;7.60;99.90;;;;;;4880475;29;20033;-89
2022/03/09 08:20:49;;;;;;;17.05;4.85;;;7.70;99.90;;;;;;4892830;29;20025;-90
2022/03/09 08:23:15;;;;;;;20.85;5.80;;;7.70;99.90;;;;;;4876227;29;20510;-89
2022/03/09 08:25:40;;;;;;;21.25;6.47;;;7.80;99.90;;;;;;4875601;29;20034;-89
2022/03/09 08:28:06;;;;;;;15.75;4.97;;;7.80;99.90;;;;;;4876331;29;20033;-89
2022/03/09 08:30:32;;;;;;;22.75;5.53;;;7.80;99.90;;;;;;4880237;29;20032;-88
2022/03/09 08:32:58;;;;;;;17.25;6.40;;;7.90;99.90;;;;;;4896283;29;20029;-89
2022/03/09 08:35:23;;;;;;;29.08;5.13;;;7.90;99.90;;;;;;4897783;29;20064;-87
2022/03/09 08:37:49;;;;;;;16.65;5.13;;;8.00;99.90;;;;;;4896200;29;20037;-88
2022/03/09 08:40:15;;;;;;;13.55;4.25;;;8.00;99.90;;;;;;4894442;29;20539;-88
2022/03/09 08:42:40;;;;;;;18.00;5.68;;;8.00;99.90;;;;;;4873943;29;20037;-87
2022/03/09 08:45:06;;;;;;;22.65;6.63;;;8.10;99.90;;;;;;4861087;29;20068;-89
2022/03/09 08:47:32;;;;;;;17.33;5.60;;;8.00;99.90;;;;;;4875620;29;20072;-87
2022/03/09 08:49:57;;;;;;;15.27;5.55;;;8.10;99.90;;;;;;4875665;29;20030;-86
2022/03/09 08:52:23;;;;;;;16.80;6.45;;;8.00;99.90;;;;;;4879903;29;20029;-88
2022/03/09 08:54:53;;;;;;;17.23;5.05;;;8.10;99.90;;;;;;4862020;29;20052;-88
2022/03/09 08:57:20;;;;;;;16.25;6.47;;;8.10;99.90;;;;;;4867979;29;20448;-87
2022/03/09 08:59:46;;;;;;;21.08;5.88;;;8.10;99.90;;;;;;4879205;29;20063;-89
2022/03/09 09:02:11;;;;;;;17.80;5.35;;;8.10;99.90;;;;;;4861589;29;20480;-88
2022/03/09 09:04:37;;;;;;;24.48;6.43;;;8.10;99.90;;;;;;4875550;29;20037;-89
2022/03/09 09:09:29;;;;;;;16.02;5.90;;;8.20;99.90;;;;;;4846813;29;20040;-88
2022/03/09 09:11:55;;;;;;;14.77;4.78;;;8.20;99.90;;;;;;4881904;29;20308;-88
2022/03/09 09:14:21;;;;;;;23.77;6.82;;;8.20;99.90;;;;;;4894861;29;20294;-87
2022/03/09 09:16:48;;;;;;;12.05;4.63;;;8.20;99.90;;;;;;4893680;29;20060;-88
2022/03/09 09:19:13;;;;;;;12.20;5.03;;;8.20;99.90;;;;;;4878298;29;20037;-87
2022/03/09 09:21:39;;;;;;;18.23;5.03;;;8.20;99.90;;;;;;4884757;29;20035;-87
2022/03/09 09:24:05;;;;;;;21.73;5.47;;;8.30;99.90;;;;;;4877104;29;20039;-89
2022/03/09 09:26:31;;;;;;;13.45;4.80;;;8.30;99.90;;;;;;4879801;29;20033;-87
2022/03/09 09:28:57;;;;;;;20.10;4.72;;;8.30;99.90;;;;;;4894042;29;20132;-87
2022/03/09 09:31:23;;;;;;;13.57;4.05;;;8.30;99.90;;;;;;4886626;29;20463;-88
2022/03/09 09:33:48;;;;;;;16.00;4.10;;;8.40;99.90;;;;;;4893732;29;20037;-88
2022/03/09 09:36:15;;;;;;;12.60;3.85;;;8.40;99.90;;;;;;4893535;29;20071;-88
2022/03/09 09:38:41;;;;;;;20.13;4.70;;;8.50;99.90;;;;;;4893557;29;20569;-89
2022/03/09 09:41:10;;;;;;;8.98;3.15;;;8.70;99.90;;;;;;4893122;29;20029;-88
2022/03/09 09:43:38;;;;;;;12.48;3.25;;;8.80;99.90;;;;;;4893038;29;20037;-88
2022/03/09 09:46:04;;;;;;;12.73;3.70;;;9.00;99.90;;;;;;4892948;29;20049;-89
2022/03/09 09:48:30;;;;;;;15.45;3.90;;;9.10;99.90;;;;;;4893343;29;20040;-89
2022/03/09 09:50:57;;;;;;;18.25;3.60;;;9.20;99.90;;;;;;4888862;29;20022;-88
2022/03/09 09:53:23;;;;;;;12.40;2.72;;;9.20;99.90;;;;;;4874853;29;20101;-89
2022/03/09 09:55:49;;;;;;;16.38;2.75;;;9.30;99.90;;;;;;4876630;29;20032;-89
2022/03/09 09:58:19;;;;;;;14.48;2.70;;;9.40;99.90;;;;;;4878686;29;20500;-89
2022/03/09 10:00:45;;;;;;;15.80;3.70;;;9.50;99.90;;;;;;4878931;29;20068;-88
2022/03/09 10:03:11;;;;;;;16.25;3.20;;;9.60;99.90;;;;;;4878617;29;20065;-88
2022/03/09 10:05:37;;;;;;;13.02;2.75;;;9.70;99.90;;;;;;4878702;29;20080;-88
2022/03/09 10:08:06;;;;;;;13.27;2.75;;;9.80;99.90;;;;;;4890615;29;20543;-88
2022/03/09 10:10:43;;;;;;;12.55;2.95;;;9.90;99.90;;;;;;4888347;29;20040;-88
2022/03/09 10:13:22;;;;;;;45.03;4.88;;;10.00;99.90;;;;;;4886821;29;20168;-88
2022/03/09 10:16:09;;;;;;;9.32;2.20;;;10.10;99.90;;;;;;4889141;29;20029;-88
2022/03/09 10:18:35;;;;;;;18.90;3.15;;;10.20;99.90;;;;;;4872938;29;20044;-89
2022/03/09 10:21:13;;;;;;;11.70;2.05;;;10.30;99.90;;;;;;4887541;29;20021;-89
2022/03/09 10:23:59;;;;;;;14.80;3.83;;;10.50;99.90;;;;;;4882891;29;20565;-88
2022/03/09 10:29:02;;;;;;;13.55;2.42;;;10.80;99.90;;;;;;4847106;29;20040;-88
2022/03/09 10:31:32;;;;;;;9.98;2.25;;;11.00;99.90;;;;;;4878154;29;20034;-89
2022/03/09 10:34:06;;;;;;;12.73;2.75;;;11.00;99.90;;;;;;4878129;29;20026;-88
2022/03/09 10:36:31;;;;;;;12.40;1.98;;;10.90;99.90;;;;;;4877697;29;20041;-89
2022/03/09 10:39:16;;;;;;;11.13;2.22;;;10.80;99.90;;;;;;4872522;29;20029;-88
2022/03/09 10:41:52;;;;;;;11.65;2.40;;;10.80;99.90;;;;;;4872709;29;20025;-89
2022/03/09 10:44:18;;;;;;;10.55;2.45;;;10.80;99.90;;;;;;4869804;29;20086;-87
2022/03/09 10:46:45;;;;;;;22.80;2.78;;;10.80;99.70;;;;;;4861470;29;20060;-89
2022/03/09 10:49:13;;;;;;;11.80;2.28;;;10.80;99.80;;;;;;4877586;29;20040;-89
2022/03/09 10:51:44;;;;;;;16.17;4.53;;;10.80;99.70;;;;;;4862361;29;20100;-89
2022/03/09 10:54:35;;;;;;;8.65;2.40;;;10.90;99.80;;;;;;4866709;29;20041;-89
2022/03/09 10:57:13;;;;;;;9.90;1.40;;;11.10;99.80;;;;;;4872871;29;20097;-88
2022/03/09 10:59:45;;;;;;;12.57;2.60;;;11.20;98.50;;;;;;4895976;29;20116;-89
2022/03/09 11:02:11;;;;;;;9.02;1.60;;;11.20;97.80;;;;;;4895223;29;20033;-89
2022/03/09 11:04:41;;;;;;;9.82;1.67;;;11.20;97.60;;;;;;4885591;29;20085;-89
2022/03/09 11:07:10;;;;;;;9.30;2.03;;;11.20;96.90;;;;;;4881844;29;20046;-88
2022/03/09 11:09:42;;;;;;;12.57;1.97;;;11.20;96.90;;;;;;4872405;29;20074;-91
2022/03/09 11:12:08;;;;;;;11.35;1.90;;;11.20;96.40;;;;;;4890287;29;20064;-89
2022/03/09 11:14:35;;;;;;;8.75;1.95;;;11.40;96.70;;;;;;4870146;29;20025;-88
2022/03/09 11:17:00;;;;;;;11.65;2.80;;;11.60;95.70;;;;;;4871182;29;20053;-89
2022/03/09 11:19:27;;;;;;;21.90;2.30;;;11.70;95.10;;;;;;4870407;29;20348;-88
2022/03/09 11:21:53;;;;;;;10.70;1.67;;;11.70;94.70;;;;;;4870967;29;20080;-88
2022/03/09 11:24:20;;;;;;;10.77;1.60;;;11.80;94.90;;;;;;4866057;29;20021;-88
2022/03/09 11:26:50;;;;;;;11.25;1.92;;;11.80;94.40;;;;;;4873908;29;20037;-89
2022/03/09 11:29:26;;;;;;;8.55;1.60;;;12.00;93.40;;;;;;4871130;29;20021;-86
2022/03/09 11:31:52;;;;;;;15.38;2.03;;;12.00;92.40;;;;;;4891301;29;20044;-88
2022/03/09 11:34:38;;;;;;;13.52;1.70;;;12.10;92.00;;;;;;4877814;29;20396;-87
2022/03/09 11:37:14;;;;;;;11.60;1.90;;;12.20;91.60;;;;;;4891028;29;20184;-88
2022/03/09 11:39:46;;;;;;;8.45;1.70;;;12.10;91.20;;;;;;4870850;29;20441;-88
2022/03/09 11:42:34;;;;;;;15.48;1.83;;;12.00;91.00;;;;;;4873151;29;20045;-89
2022/03/09 11:45:20;;;;;;;13.02;2.47;;;12.10;91.10;;;;;;4870188;29;20283;-88
2022/03/09 11:48:03;;;;;;;10.65;1.95;;;12.10;90.80;;;;;;4867816;29;20136;-89
2022/03/09 11:50:33;;;;;;;10.75;1.90;;;12.40;90.90;;;;;;4876747;29;20025;-88
2022/03/09 11:53:00;;;;;;;9.27;1.73;;;12.60;90.80;;;;;;4876391;29;20040;-89
2022/03/09 11:55:27;;;;;;;9.57;1.70;;;12.90;90.00;;;;;;4860365;29;20577;-88
2022/03/09 11:57:55;;;;;;;10.88;1.70;;;13.00;88.80;;;;;;4862244;29;20042;-89
2022/03/09 12:00:22;;;;;;;14.57;1.95;;;13.00;88.10;;;;;;4860321;29;20030;-88
2022/03/09 12:02:54;;;;;;;10.38;1.83;;;13.00;87.70;;;;;;4861633;29;20082;-89
2022/03/09 12:05:31;;;;;;;8.85;1.55;;;12.80;86.80;;;;;;4861265;29;20032;-88
2022/03/09 12:08:14;;;;;;;7.20;1.83;;;12.70;87.10;;;;;;4861502;29;20037;-89
2022/03/09 12:10:42;;;;;;;14.52;2.20;;;12.50;87.30;;;;;;4875818;29;20036;-88
2022/03/09 12:13:33;;;;;;;10.15;1.23;;;12.50;88.00;;;;;;4861182;29;20063;-88
2022/03/09 12:16:02;;;;;;;7.90;2.00;;;12.40;88.00;;;;;;4860359;29;20125;-88
2022/03/09 12:18:44;;;;;;;10.48;1.77;;;12.20;87.80;;;;;;4875810;29;20064;-88
2022/03/09 12:21:13;;;;;;;17.02;2.10;;;12.10;88.40;;;;;;4878350;29;20033;-87
2022/03/09 12:24:02;;;;;;;9.63;1.90;;;12.10;88.70;;;;;;4894345;29;20089;-88
2022/03/09 12:26:49;;;;;;;7.75;1.60;;;12.10;89.30;;;;;;4875141;29;20056;-89
2022/03/09 12:29:21;;;;;;;12.40;1.90;;;12.20;88.50;;;;;;4880135;29;20063;-91
2022/03/09 12:31:59;;;;;;;14.07;1.48;;;12.20;88.40;;;;;;4894640;29;20025;-90
2022/03/09 12:34:26;;;;;;;14.45;1.98;;;12.20;88.60;;;;;;4894567;29;20037;-90
2022/03/09 12:36:52;;;;;;;11.43;2.17;;;12.20;88.10;;;;;;4892860;29;20041;-89
2022/03/09 12:39:18;;;;;;;16.20;2.33;;;12.20;87.70;;;;;;4868543;29;20029;-89
2022/03/09 12:41:50;;;;;;;9.18;1.88;;;12.10;88.00;;;;;;4884619;29;20021;-91
2022/03/09 12:44:17;;;;;;;8.90;1.80;;;12.10;88.60;;;;;;4889480;29;20065;-90
2022/03/09 12:46:47;;;;;;;15.05;2.08;;;12.10;88.30;;;;;;4870494;29;20050;-91
2022/03/09 12:49:18;;;;;;;;;;;12.00;88.10;;;;;;4885657;29;20028;-90
2022/03/09 12:51:51;;;;;;;10.03;1.37;;;11.90;88.30;;;;;;4871508;29;20032;-91